sensor_id;sensor_type;location;lat;lon;timestamp;P1;durP1;ratioP1;P2;durP2;ratioP2
14030;SDS011;7090;49.436;8.490;2023-01-29T00:00:38;6.03;;;5.83;;
14030;SDS011;7090;49.436;8.490;2023-01-29T00:03:04;6.23;;;6.03;;
14030;SDS011;7090;49.436;8.490;2023-01-29T00:05:29;6.23;;;6.03;;
14030;SDS011;7090;49.436;8.490;2023-01-29T00:07:55;6.53;;;6.33;;
14030;SDS011;7090;49.436;8.490;2023-01-29T00:10:22;6.87;;;6.57;;
14030;SDS011;7090;49.436;8.490;2023-01-29T00:12:50;6.90;;;6.60;;
14030;SDS011;7090;49.436;8.490;2023-01-29T00:15:16;6.60;;;6.40;;
14030;SDS011;7090;49.436;8.490;2023-01-29T00:17:42;6.40;;;6.20;;
14030;SDS011;7090;49.436;8.490;2023-01-29T00:20:09;6.00;;;5.80;;
14030;SDS011;7090;49.436;8.490;2023-01-29T00:22:35;6.60;;;6.40;;
14030;SDS011;7090;49.436;8.490;2023-01-29T00:25:00;5.93;;;5.73;;
14030;SDS011;7090;49.436;8.490;2023-01-29T00:27:26;8.60;;;8.00;;
14030;SDS011;7090;49.436;8.490;2023-01-29T00:29:51;6.03;;;5.83;;
14030;SDS011;7090;49.436;8.490;2023-01-29T00:32:36;10.10;;;9.37;;
14030;SDS011;7090;49.436;8.490;2023-01-29T00:35:02;6.90;;;6.70;;
14030;SDS011;7090;49.436;8.490;2023-01-29T00:37:27;6.30;;;6.10;;
14030;SDS011;7090;49.436;8.490;2023-01-29T00:39:53;6.63;;;6.40;;
14030;SDS011;7090;49.436;8.490;2023-01-29T00:42:19;6.03;;;5.83;;
14030;SDS011;7090;49.436;8.490;2023-01-29T00:45:03;6.03;;;5.83;;
14030;SDS011;7090;49.436;8.490;2023-01-29T00:47:29;5.70;;;5.50;;
14030;SDS011;7090;49.436;8.490;2023-01-29T00:49:55;6.47;;;6.27;;
14030;SDS011;7090;49.436;8.490;2023-01-29T00:52:21;5.80;;;5.60;;
14030;SDS011;7090;49.436;8.490;2023-01-29T00:54:54;6.00;;;5.80;;
14030;SDS011;7090;49.436;8.490;2023-01-29T00:57:22;6.83;;;6.63;;
14030;SDS011;7090;49.436;8.490;2023-01-29T00:59:48;5.87;;;5.67;;
14030;SDS011;7090;49.436;8.490;2023-01-29T01:02:14;6.43;;;6.23;;
14030;SDS011;7090;49.436;8.490;2023-01-29T01:04:59;5.97;;;5.77;;
14030;SDS011;7090;49.436;8.490;2023-01-29T01:07:26;7.50;;;7.20;;
14030;SDS011;7090;49.436;8.490;2023-01-29T01:09:52;7.17;;;6.77;;
14030;SDS011;7090;49.436;8.490;2023-01-29T01:12:36;5.83;;;5.63;;
14030;SDS011;7090;49.436;8.490;2023-01-29T01:15:01;6.23;;;6.03;;
14030;SDS011;7090;49.436;8.490;2023-01-29T01:17:27;6.90;;;6.70;;
14030;SDS011;7090;49.436;8.490;2023-01-29T01:19:53;7.23;;;6.93;;
14030;SDS011;7090;49.436;8.490;2023-01-29T01:22:18;6.63;;;6.43;;
14030;SDS011;7090;49.436;8.490;2023-01-29T01:24:47;6.30;;;6.10;;
14030;SDS011;7090;49.436;8.490;2023-01-29T01:27:12;6.53;;;6.33;;
14030;SDS011;7090;49.436;8.490;2023-01-29T01:29:38;6.87;;;6.63;;
14030;SDS011;7090;49.436;8.490;2023-01-29T01:32:05;7.53;;;7.20;;
14030;SDS011;7090;49.436;8.490;2023-01-29T01:34:30;6.33;;;6.03;;
14030;SDS011;7090;49.436;8.490;2023-01-29T01:36:56;6.53;;;6.33;;
14030;SDS011;7090;49.436;8.490;2023-01-29T01:39:22;6.73;;;6.53;;
14030;SDS011;7090;49.436;8.490;2023-01-29T01:41:49;6.30;;;6.10;;
14030;SDS011;7090;49.436;8.490;2023-01-29T01:47:23;6.43;;;6.13;;
14030;SDS011;7090;49.436;8.490;2023-01-29T01:49:54;7.20;;;6.80;;
14030;SDS011;7090;49.436;8.490;2023-01-29T01:52:23;7.73;;;7.40;;
14030;SDS011;7090;49.436;8.490;2023-01-29T01:54:49;6.00;;;5.80;;
14030;SDS011;7090;49.436;8.490;2023-01-29T01:57:16;6.63;;;6.33;;
14030;SDS011;7090;49.436;8.490;2023-01-29T01:59:49;6.00;;;5.80;;
14030;SDS011;7090;49.436;8.490;2023-01-29T02:02:20;6.70;;;6.50;;
14030;SDS011;7090;49.436;8.490;2023-01-29T02:05:08;6.90;;;6.53;;
14030;SDS011;7090;49.436;8.490;2023-01-29T02:07:54;6.67;;;6.47;;
14030;SDS011;7090;49.436;8.490;2023-01-29T02:10:42;6.30;;;6.10;;
14030;SDS011;7090;49.436;8.490;2023-01-29T02:13:11;6.40;;;6.20;;
14030;SDS011;7090;49.436;8.490;2023-01-29T02:15:40;6.60;;;6.30;;
14030;SDS011;7090;49.436;8.490;2023-01-29T02:18:06;7.03;;;6.73;;
14030;SDS011;7090;49.436;8.490;2023-01-29T02:20:33;6.30;;;6.10;;
14030;SDS011;7090;49.436;8.490;2023-01-29T02:39:15;5.93;;;5.73;;
14030;SDS011;7090;49.436;8.490;2023-01-29T02:44:59;8.63;;;8.13;;
14030;SDS011;7090;49.436;8.490;2023-01-29T02:47:58;7.30;;;7.00;;
14030;SDS011;7090;49.436;8.490;2023-01-29T02:50:40;6.87;;;6.67;;
14030;SDS011;7090;49.436;8.490;2023-01-29T02:53:21;7.17;;;6.87;;
14030;SDS011;7090;49.436;8.490;2023-01-29T02:55:51;6.63;;;6.43;;
14030;SDS011;7090;49.436;8.490;2023-01-29T02:58:31;7.30;;;7.00;;
14030;SDS011;7090;49.436;8.490;2023-01-29T03:01:08;8.20;;;7.70;;
14030;SDS011;7090;49.436;8.490;2023-01-29T03:03:42;6.43;;;6.23;;
14030;SDS011;7090;49.436;8.490;2023-01-29T03:06:20;6.87;;;6.67;;
14030;SDS011;7090;49.436;8.490;2023-01-29T03:08:57;6.30;;;6.10;;
14030;SDS011;7090;49.436;8.490;2023-01-29T03:11:26;6.40;;;6.20;;
14030;SDS011;7090;49.436;8.490;2023-01-29T03:13:58;7.50;;;7.20;;
14030;SDS011;7090;49.436;8.490;2023-01-29T03:16:39;6.50;;;6.30;;
14030;SDS011;7090;49.436;8.490;2023-01-29T03:19:13;7.57;;;7.17;;
14030;SDS011;7090;49.436;8.490;2023-01-29T03:22:00;6.60;;;6.40;;
14030;SDS011;7090;49.436;8.490;2023-01-29T03:27:17;6.30;;;6.10;;
14030;SDS011;7090;49.436;8.490;2023-01-29T03:30:05;6.67;;;6.47;;
14030;SDS011;7090;49.436;8.490;2023-01-29T03:32:52;7.00;;;6.80;;
14030;SDS011;7090;49.436;8.490;2023-01-29T03:35:21;7.13;;;6.80;;
14030;SDS011;7090;49.436;8.490;2023-01-29T03:37:59;6.70;;;6.50;;
14030;SDS011;7090;49.436;8.490;2023-01-29T03:40:26;6.43;;;6.23;;
14030;SDS011;7090;49.436;8.490;2023-01-29T03:45:37;6.77;;;6.57;;
14030;SDS011;7090;49.436;8.490;2023-01-29T03:53:56;7.07;;;6.87;;
14030;SDS011;7090;49.436;8.490;2023-01-29T03:56:43;6.43;;;6.23;;
14030;SDS011;7090;49.436;8.490;2023-01-29T04:01:55;6.60;;;6.40;;
14030;SDS011;7090;49.436;8.490;2023-01-29T04:04:31;6.73;;;6.53;;
14030;SDS011;7090;49.436;8.490;2023-01-29T04:07:02;8.27;;;7.97;;
14030;SDS011;7090;49.436;8.490;2023-01-29T04:09:41;7.00;;;6.80;;
14030;SDS011;7090;49.436;8.490;2023-01-29T04:12:12;6.60;;;6.40;;
14030;SDS011;7090;49.436;8.490;2023-01-29T04:14:42;6.97;;;6.67;;
14030;SDS011;7090;49.436;8.490;2023-01-29T04:17:12;7.80;;;7.17;;
14030;SDS011;7090;49.436;8.490;2023-01-29T04:19:40;7.43;;;7.13;;
14030;SDS011;7090;49.436;8.490;2023-01-29T04:22:30;6.97;;;6.77;;
14030;SDS011;7090;49.436;8.490;2023-01-29T04:24:59;6.70;;;6.50;;
14030;SDS011;7090;49.436;8.490;2023-01-29T04:28:25;7.30;;;7.00;;
14030;SDS011;7090;49.436;8.490;2023-01-29T04:30:59;7.70;;;7.40;;
14030;SDS011;7090;49.436;8.490;2023-01-29T04:41:16;7.87;;;7.50;;
14030;SDS011;7090;49.436;8.490;2023-01-29T04:44:07;8.37;;;8.00;;
14030;SDS011;7090;49.436;8.490;2023-01-29T04:49:26;7.77;;;7.47;;
14030;SDS011;7090;49.436;8.490;2023-01-29T04:52:10;6.57;;;6.37;;
14030;SDS011;7090;49.436;8.490;2023-01-29T04:59:47;9.77;;;9.00;;
14030;SDS011;7090;49.436;8.490;2023-01-29T05:02:19;10.67;;;9.53;;
14030;SDS011;7090;49.436;8.490;2023-01-29T05:04:48;7.40;;;7.00;;
14030;SDS011;7090;49.436;8.490;2023-01-29T05:07:14;5.97;;;5.77;;
14030;SDS011;7090;49.436;8.490;2023-01-29T05:09:42;6.27;;;6.07;;
14030;SDS011;7090;49.436;8.490;2023-01-29T05:12:11;12.10;;;11.00;;
14030;SDS011;7090;49.436;8.490;2023-01-29T05:14:40;9.70;;;8.97;;
14030;SDS011;7090;49.436;8.490;2023-01-29T05:17:08;9.87;;;8.97;;
14030;SDS011;7090;49.436;8.490;2023-01-29T05:19:39;6.40;;;6.20;;
14030;SDS011;7090;49.436;8.490;2023-01-29T05:22:04;6.80;;;6.60;;
14030;SDS011;7090;49.436;8.490;2023-01-29T05:24:31;6.37;;;6.17;;
14030;SDS011;7090;49.436;8.490;2023-01-29T05:26:59;6.70;;;6.50;;
14030;SDS011;7090;49.436;8.490;2023-01-29T05:29:44;6.60;;;6.40;;
14030;SDS011;7090;49.436;8.490;2023-01-29T05:32:11;6.43;;;6.23;;
14030;SDS011;7090;49.436;8.490;2023-01-29T05:34:36;6.80;;;6.60;;
14030;SDS011;7090;49.436;8.490;2023-01-29T05:37:02;6.37;;;6.17;;
14030;SDS011;7090;49.436;8.490;2023-01-29T05:39:28;6.50;;;6.30;;
14030;SDS011;7090;49.436;8.490;2023-01-29T05:41:53;6.53;;;6.33;;
14030;SDS011;7090;49.436;8.490;2023-01-29T05:44:19;7.07;;;6.77;;
14030;SDS011;7090;49.436;8.490;2023-01-29T05:46:45;6.57;;;6.30;;
14030;SDS011;7090;49.436;8.490;2023-01-29T05:49:10;7.40;;;7.03;;
14030;SDS011;7090;49.436;8.490;2023-01-29T05:51:36;6.60;;;6.40;;
14030;SDS011;7090;49.436;8.490;2023-01-29T05:54:02;5.67;;;5.47;;
14030;SDS011;7090;49.436;8.490;2023-01-29T05:56:28;6.83;;;6.63;;
14030;SDS011;7090;49.436;8.490;2023-01-29T05:58:53;6.87;;;6.57;;
14030;SDS011;7090;49.436;8.490;2023-01-29T06:01:21;6.20;;;6.00;;
14030;SDS011;7090;49.436;8.490;2023-01-29T06:03:49;6.20;;;6.00;;
14030;SDS011;7090;49.436;8.490;2023-01-29T06:06:15;6.40;;;6.20;;
14030;SDS011;7090;49.436;8.490;2023-01-29T06:08:41;8.57;;;7.97;;
14030;SDS011;7090;49.436;8.490;2023-01-29T06:11:08;5.73;;;5.53;;
14030;SDS011;7090;49.436;8.490;2023-01-29T06:13:35;6.87;;;6.67;;
14030;SDS011;7090;49.436;8.490;2023-01-29T06:16:07;6.20;;;6.00;;
14030;SDS011;7090;49.436;8.490;2023-01-29T06:18:38;6.80;;;6.60;;
14030;SDS011;7090;49.436;8.490;2023-01-29T06:21:06;7.30;;;6.90;;
14030;SDS011;7090;49.436;8.490;2023-01-29T06:23:33;6.10;;;5.90;;
14030;SDS011;7090;49.436;8.490;2023-01-29T06:26:00;6.10;;;5.90;;
14030;SDS011;7090;49.436;8.490;2023-01-29T06:28:26;6.97;;;6.77;;
14030;SDS011;7090;49.436;8.490;2023-01-29T06:30:52;6.47;;;6.27;;
14030;SDS011;7090;49.436;8.490;2023-01-29T06:33:17;6.07;;;5.87;;
14030;SDS011;7090;49.436;8.490;2023-01-29T06:35:43;6.40;;;6.20;;
14030;SDS011;7090;49.436;8.490;2023-01-29T06:38:08;5.97;;;5.77;;
14030;SDS011;7090;49.436;8.490;2023-01-29T06:40:34;6.77;;;6.57;;
14030;SDS011;7090;49.436;8.490;2023-01-29T06:43:02;6.40;;;6.20;;
14030;SDS011;7090;49.436;8.490;2023-01-29T06:45:27;7.93;;;7.63;;
14030;SDS011;7090;49.436;8.490;2023-01-29T06:47:53;7.60;;;7.30;;
14030;SDS011;7090;49.436;8.490;2023-01-29T06:50:19;7.43;;;6.83;;
14030;SDS011;7090;49.436;8.490;2023-01-29T06:52:51;8.67;;;8.23;;
14030;SDS011;7090;49.436;8.490;2023-01-29T06:55:17;6.37;;;6.17;;
14030;SDS011;7090;49.436;8.490;2023-01-29T06:57:42;6.00;;;5.80;;
14030;SDS011;7090;49.436;8.490;2023-01-29T07:00:08;6.00;;;5.80;;
14030;SDS011;7090;49.436;8.490;2023-01-29T07:02:34;7.13;;;6.93;;
14030;SDS011;7090;49.436;8.490;2023-01-29T07:05:00;7.30;;;7.00;;
14030;SDS011;7090;49.436;8.490;2023-01-29T07:07:25;6.17;;;5.97;;
14030;SDS011;7090;49.436;8.490;2023-01-29T07:09:51;6.73;;;6.53;;
14030;SDS011;7090;49.436;8.490;2023-01-29T07:12:16;6.03;;;5.83;;
14030;SDS011;7090;49.436;8.490;2023-01-29T07:14:42;6.30;;;6.10;;
14030;SDS011;7090;49.436;8.490;2023-01-29T07:17:10;6.30;;;6.10;;
14030;SDS011;7090;49.436;8.490;2023-01-29T07:19:36;6.40;;;6.20;;
14030;SDS011;7090;49.436;8.490;2023-01-29T07:22:01;6.40;;;6.20;;
14030;SDS011;7090;49.436;8.490;2023-01-29T07:24:27;6.67;;;6.47;;
14030;SDS011;7090;49.436;8.490;2023-01-29T07:26:53;13.17;;;12.57;;
14030;SDS011;7090;49.436;8.490;2023-01-29T07:29:22;6.87;;;6.67;;
14030;SDS011;7090;49.436;8.490;2023-01-29T07:31:47;7.30;;;7.10;;
14030;SDS011;7090;49.436;8.490;2023-01-29T07:34:13;8.83;;;8.53;;
14030;SDS011;7090;49.436;8.490;2023-01-29T07:36:38;6.53;;;6.33;;
14030;SDS011;7090;49.436;8.490;2023-01-29T07:39:04;7.13;;;6.93;;
14030;SDS011;7090;49.436;8.490;2023-01-29T07:41:30;7.30;;;7.10;;
14030;SDS011;7090;49.436;8.490;2023-01-29T07:43:55;7.80;;;7.50;;
14030;SDS011;7090;49.436;8.490;2023-01-29T07:46:21;8.40;;;8.00;;
14030;SDS011;7090;49.436;8.490;2023-01-29T07:48:46;7.20;;;7.00;;
14030;SDS011;7090;49.436;8.490;2023-01-29T07:51:12;7.20;;;7.00;;
14030;SDS011;7090;49.436;8.490;2023-01-29T07:53:37;7.20;;;7.00;;
14030;SDS011;7090;49.436;8.490;2023-01-29T07:56:03;7.10;;;6.90;;
14030;SDS011;7090;49.436;8.490;2023-01-29T07:58:29;7.27;;;7.07;;
14030;SDS011;7090;49.436;8.490;2023-01-29T08:00:54;6.93;;;6.73;;
14030;SDS011;7090;49.436;8.490;2023-01-29T08:03:20;7.63;;;7.33;;
14030;SDS011;7090;49.436;8.490;2023-01-29T08:05:45;7.20;;;7.00;;
14030;SDS011;7090;49.436;8.490;2023-01-29T08:08:11;7.23;;;7.03;;
14030;SDS011;7090;49.436;8.490;2023-01-29T08:10:39;7.50;;;7.20;;
14030;SDS011;7090;49.436;8.490;2023-01-29T08:13:05;7.10;;;6.90;;
14030;SDS011;7090;49.436;8.490;2023-01-29T08:15:32;7.47;;;7.17;;
14030;SDS011;7090;49.436;8.490;2023-01-29T08:17:58;7.00;;;6.80;;
14030;SDS011;7090;49.436;8.490;2023-01-29T08:20:26;7.50;;;7.20;;
14030;SDS011;7090;49.436;8.490;2023-01-29T08:22:58;8.67;;;8.37;;
14030;SDS011;7090;49.436;8.490;2023-01-29T08:25:25;9.40;;;9.00;;
14030;SDS011;7090;49.436;8.490;2023-01-29T08:27:51;8.47;;;8.03;;
14030;SDS011;7090;49.436;8.490;2023-01-29T08:30:16;8.33;;;7.93;;
14030;SDS011;7090;49.436;8.490;2023-01-29T08:32:42;10.47;;;9.70;;
14030;SDS011;7090;49.436;8.490;2023-01-29T08:35:07;11.30;;;10.07;;
14030;SDS011;7090;49.436;8.490;2023-01-29T08:37:33;8.30;;;8.00;;
14030;SDS011;7090;49.436;8.490;2023-01-29T08:39:59;7.90;;;7.60;;
14030;SDS011;7090;49.436;8.490;2023-01-29T08:42:24;8.93;;;8.63;;
14030;SDS011;7090;49.436;8.490;2023-01-29T08:44:50;8.13;;;7.83;;
14030;SDS011;7090;49.436;8.490;2023-01-29T08:47:16;8.00;;;7.70;;
14030;SDS011;7090;49.436;8.490;2023-01-29T08:49:41;10.83;;;10.20;;
14030;SDS011;7090;49.436;8.490;2023-01-29T08:52:07;8.33;;;8.03;;
14030;SDS011;7090;49.436;8.490;2023-01-29T08:54:32;8.20;;;7.90;;
14030;SDS011;7090;49.436;8.490;2023-01-29T08:56:58;8.73;;;8.43;;
14030;SDS011;7090;49.436;8.490;2023-01-29T08:59:23;9.03;;;8.50;;
14030;SDS011;7090;49.436;8.490;2023-01-29T09:01:49;9.47;;;8.87;;
14030;SDS011;7090;49.436;8.490;2023-01-29T09:04:15;7.73;;;7.43;;
14030;SDS011;7090;49.436;8.490;2023-01-29T09:06:40;7.73;;;7.43;;
14030;SDS011;7090;49.436;8.490;2023-01-29T09:09:06;9.93;;;9.17;;
14030;SDS011;7090;49.436;8.490;2023-01-29T09:11:32;12.70;;;11.53;;
14030;SDS011;7090;49.436;8.490;2023-01-29T09:13:57;12.03;;;11.03;;
14030;SDS011;7090;49.436;8.490;2023-01-29T09:16:23;12.73;;;11.67;;
14030;SDS011;7090;49.436;8.490;2023-01-29T09:18:48;11.43;;;10.53;;
14030;SDS011;7090;49.436;8.490;2023-01-29T09:21:16;12.90;;;11.70;;
14030;SDS011;7090;49.436;8.490;2023-01-29T09:23:42;13.40;;;12.20;;
14030;SDS011;7090;49.436;8.490;2023-01-29T09:26:08;11.50;;;10.53;;
14030;SDS011;7090;49.436;8.490;2023-01-29T09:28:33;12.43;;;11.23;;
14030;SDS011;7090;49.436;8.490;2023-01-29T09:30:59;8.90;;;8.30;;
14030;SDS011;7090;49.436;8.490;2023-01-29T09:33:26;13.00;;;12.17;;
14030;SDS011;7090;49.436;8.490;2023-01-29T09:35:52;10.70;;;10.10;;
14030;SDS011;7090;49.436;8.490;2023-01-29T09:38:17;8.50;;;8.17;;
14030;SDS011;7090;49.436;8.490;2023-01-29T09:46:14;8.33;;;8.03;;
14030;SDS011;7090;49.436;8.490;2023-01-29T09:48:57;8.67;;;8.30;;
14030;SDS011;7090;49.436;8.490;2023-01-29T09:51:33;8.20;;;7.90;;
14030;SDS011;7090;49.436;8.490;2023-01-29T09:56:47;8.17;;;7.87;;
14030;SDS011;7090;49.436;8.490;2023-01-29T09:59:17;8.00;;;7.70;;
14030;SDS011;7090;49.436;8.490;2023-01-29T10:01:49;10.13;;;9.57;;
14030;SDS011;7090;49.436;8.490;2023-01-29T10:15:12;8.60;;;8.20;;
14030;SDS011;7090;49.436;8.490;2023-01-29T10:23:20;9.10;;;8.70;;
14030;SDS011;7090;49.436;8.490;2023-01-29T10:25:58;8.33;;;8.03;;
14030;SDS011;7090;49.436;8.490;2023-01-29T10:28:29;8.73;;;8.23;;
14030;SDS011;7090;49.436;8.490;2023-01-29T10:31:05;7.87;;;7.57;;
14030;SDS011;7090;49.436;8.490;2023-01-29T10:33:57;9.77;;;8.80;;
14030;SDS011;7090;49.436;8.490;2023-01-29T10:36:46;9.17;;;8.77;;
14030;SDS011;7090;49.436;8.490;2023-01-29T10:39:19;7.75;;;7.45;;
14030;SDS011;7090;49.436;8.490;2023-01-29T10:44:45;12.30;;;10.83;;
14030;SDS011;7090;49.436;8.490;2023-01-29T10:53:17;11.57;;;10.77;;
14030;SDS011;7090;49.436;8.490;2023-01-29T10:58:33;11.60;;;10.73;;
14030;SDS011;7090;49.436;8.490;2023-01-29T11:01:12;12.48;;;11.27;;
14030;SDS011;7090;49.436;8.490;2023-01-29T11:03:38;10.13;;;9.37;;
14030;SDS011;7090;49.436;8.490;2023-01-29T11:06:08;10.37;;;9.73;;
14030;SDS011;7090;49.436;8.490;2023-01-29T11:09:33;10.10;;;9.47;;
14030;SDS011;7090;49.436;8.490;2023-01-29T11:12:15;10.60;;;9.93;;
14030;SDS011;7090;49.436;8.490;2023-01-29T11:14:46;11.43;;;10.43;;
14030;SDS011;7090;49.436;8.490;2023-01-29T11:17:23;20.23;;;14.73;;
14030;SDS011;7090;49.436;8.490;2023-01-29T11:19:50;18.43;;;13.03;;
14030;SDS011;7090;49.436;8.490;2023-01-29T11:22:20;15.20;;;10.20;;
14030;SDS011;7090;49.436;8.490;2023-01-29T11:25:35;11.00;;;10.20;;
14030;SDS011;7090;49.436;8.490;2023-01-29T11:30:18;13.53;;;12.17;;
14030;SDS011;7090;49.436;8.490;2023-01-29T11:33:04;9.00;;;8.53;;
14030;SDS011;7090;49.436;8.490;2023-01-29T11:35:33;10.13;;;9.60;;
14030;SDS011;7090;49.436;8.490;2023-01-29T11:40:45;13.73;;;12.53;;
14030;SDS011;7090;49.436;8.490;2023-01-29T11:45:50;8.97;;;8.57;;
14030;SDS011;7090;49.436;8.490;2023-01-29T11:48:48;12.47;;;11.37;;
14030;SDS011;7090;49.436;8.490;2023-01-29T11:51:22;9.50;;;9.10;;
14030;SDS011;7090;49.436;8.490;2023-01-29T11:53:54;9.27;;;8.77;;
14030;SDS011;7090;49.436;8.490;2023-01-29T11:58:56;12.37;;;11.50;;
14030;SDS011;7090;49.436;8.490;2023-01-29T12:01:28;13.40;;;11.97;;
14030;SDS011;7090;49.436;8.490;2023-01-29T12:03:57;9.27;;;8.67;;
14030;SDS011;7090;49.436;8.490;2023-01-29T12:06:28;9.95;;;9.43;;
14030;SDS011;7090;49.436;8.490;2023-01-29T12:09:02;9.10;;;8.70;;
14030;SDS011;7090;49.436;8.490;2023-01-29T12:11:35;11.40;;;10.67;;
14030;SDS011;7090;49.436;8.490;2023-01-29T12:14:02;11.02;;;10.27;;
14030;SDS011;7090;49.436;8.490;2023-01-29T12:19:52;12.27;;;10.60;;
14030;SDS011;7090;49.436;8.490;2023-01-29T12:28:13;13.37;;;12.13;;
14030;SDS011;7090;49.436;8.490;2023-01-29T12:31:05;11.90;;;11.02;;
14030;SDS011;7090;49.436;8.490;2023-01-29T12:33:48;10.40;;;9.90;;
14030;SDS011;7090;49.436;8.490;2023-01-29T12:38:48;11.60;;;10.83;;
14030;SDS011;7090;49.436;8.490;2023-01-29T12:41:24;10.67;;;9.87;;
14030;SDS011;7090;49.436;8.490;2023-01-29T12:44:03;10.03;;;9.20;;
14030;SDS011;7090;49.436;8.490;2023-01-29T12:46:40;11.67;;;10.97;;
14030;SDS011;7090;49.436;8.490;2023-01-29T12:49:32;7.90;;;7.60;;
14030;SDS011;7090;49.436;8.490;2023-01-29T12:51:59;10.43;;;10.03;;
14030;SDS011;7090;49.436;8.490;2023-01-29T13:00:27;11.60;;;10.33;;
14030;SDS011;7090;49.436;8.490;2023-01-29T13:05:43;11.40;;;10.33;;
14030;SDS011;7090;49.436;8.490;2023-01-29T13:08:16;8.23;;;7.93;;
14030;SDS011;7090;49.436;8.490;2023-01-29T13:10:50;17.05;;;13.57;;
14030;SDS011;7090;49.436;8.490;2023-01-29T13:13:25;37.13;;;17.60;;
14030;SDS011;7090;49.436;8.490;2023-01-29T13:15:57;11.53;;;10.60;;
14030;SDS011;7090;49.436;8.490;2023-01-29T13:18:32;12.90;;;11.80;;
14030;SDS011;7090;49.436;8.490;2023-01-29T13:21:17;10.20;;;9.60;;
14030;SDS011;7090;49.436;8.490;2023-01-29T13:23:47;12.70;;;11.38;;
14030;SDS011;7090;49.436;8.490;2023-01-29T13:26:22;9.77;;;9.10;;
14030;SDS011;7090;49.436;8.490;2023-01-29T13:28:50;16.53;;;15.13;;
14030;SDS011;7090;49.436;8.490;2023-01-29T13:31:25;10.83;;;10.13;;
14030;SDS011;7090;49.436;8.490;2023-01-29T13:36:47;13.07;;;11.87;;
14030;SDS011;7090;49.436;8.490;2023-01-29T13:39:27;13.60;;;12.40;;
14030;SDS011;7090;49.436;8.490;2023-01-29T13:41:57;11.10;;;10.47;;
14030;SDS011;7090;49.436;8.490;2023-01-29T13:44:25;10.40;;;9.70;;
14030;SDS011;7090;49.436;8.490;2023-01-29T13:49:25;10.90;;;10.30;;
14030;SDS011;7090;49.436;8.490;2023-01-29T13:54:39;12.33;;;11.47;;
14030;SDS011;7090;49.436;8.490;2023-01-29T13:57:08;10.47;;;9.80;;
14030;SDS011;7090;49.436;8.490;2023-01-29T13:59:58;11.37;;;10.30;;
14030;SDS011;7090;49.436;8.490;2023-01-29T14:02:25;9.00;;;8.50;;
14030;SDS011;7090;49.436;8.490;2023-01-29T14:08:02;7.87;;;7.57;;
14030;SDS011;7090;49.436;8.490;2023-01-29T14:10:40;10.00;;;9.50;;
14030;SDS011;7090;49.436;8.490;2023-01-29T14:18:24;10.48;;;9.98;;
14030;SDS011;7090;49.436;8.490;2023-01-29T14:26:17;14.47;;;12.60;;
14030;SDS011;7090;49.436;8.490;2023-01-29T14:28:50;12.30;;;11.50;;
14030;SDS011;7090;49.436;8.490;2023-01-29T14:31:28;10.27;;;9.77;;
14030;SDS011;7090;49.436;8.490;2023-01-29T14:33:59;10.07;;;9.47;;
14030;SDS011;7090;49.436;8.490;2023-01-29T14:36:27;7.87;;;7.57;;
14030;SDS011;7090;49.436;8.490;2023-01-29T14:38:53;12.87;;;11.87;;
14030;SDS011;7090;49.436;8.490;2023-01-29T14:41:34;7.95;;;7.65;;
14030;SDS011;7090;49.436;8.490;2023-01-29T14:47:03;14.07;;;12.77;;
14030;SDS011;7090;49.436;8.490;2023-01-29T14:52:14;11.67;;;10.63;;
14030;SDS011;7090;49.436;8.490;2023-01-29T14:54:42;9.23;;;8.83;;
14030;SDS011;7090;49.436;8.490;2023-01-29T15:00:33;9.82;;;9.23;;
14030;SDS011;7090;49.436;8.490;2023-01-29T15:03:04;13.60;;;12.60;;
14030;SDS011;7090;49.436;8.490;2023-01-29T15:05:38;13.27;;;11.97;;
14030;SDS011;7090;49.436;8.490;2023-01-29T15:14:07;10.60;;;9.90;;
14030;SDS011;7090;49.436;8.490;2023-01-29T15:16:26;9.63;;;9.13;;
14030;SDS011;7090;49.436;8.490;2023-01-29T15:18:56;11.17;;;10.37;;
14030;SDS011;7090;49.436;8.490;2023-01-29T15:21:35;12.70;;;11.63;;
14030;SDS011;7090;49.436;8.490;2023-01-29T15:24:04;11.43;;;10.70;;
14030;SDS011;7090;49.436;8.490;2023-01-29T15:26:31;11.32;;;10.43;;
14030;SDS011;7090;49.436;8.490;2023-01-29T15:28:58;7.83;;;7.53;;
14030;SDS011;7090;49.436;8.490;2023-01-29T15:31:25;9.93;;;9.33;;
14030;SDS011;7090;49.436;8.490;2023-01-29T15:33:53;9.63;;;9.13;;
14030;SDS011;7090;49.436;8.490;2023-01-29T15:36:26;11.80;;;10.60;;
14030;SDS011;7090;49.436;8.490;2023-01-29T15:41:41;9.70;;;9.00;;
14030;SDS011;7090;49.436;8.490;2023-01-29T15:44:15;7.40;;;7.10;;
14030;SDS011;7090;49.436;8.490;2023-01-29T15:46:55;8.30;;;7.90;;
14030;SDS011;7090;49.436;8.490;2023-01-29T15:49:26;12.03;;;10.07;;
14030;SDS011;7090;49.436;8.490;2023-01-29T15:51:56;10.50;;;9.90;;
14030;SDS011;7090;49.436;8.490;2023-01-29T15:54:23;8.90;;;8.23;;
14030;SDS011;7090;49.436;8.490;2023-01-29T15:56:54;13.97;;;11.10;;
14030;SDS011;7090;49.436;8.490;2023-01-29T15:59:22;9.97;;;9.27;;
14030;SDS011;7090;49.436;8.490;2023-01-29T16:07:42;13.33;;;12.07;;
14030;SDS011;7090;49.436;8.490;2023-01-29T16:10:42;10.97;;;10.17;;
14030;SDS011;7090;49.436;8.490;2023-01-29T16:13:01;11.13;;;10.13;;
14030;SDS011;7090;49.436;8.490;2023-01-29T16:15:29;9.47;;;8.90;;
14030;SDS011;7090;49.436;8.490;2023-01-29T16:18:00;9.00;;;8.50;;
14030;SDS011;7090;49.436;8.490;2023-01-29T16:20:34;12.87;;;11.73;;
14030;SDS011;7090;49.436;8.490;2023-01-29T16:23:03;10.50;;;9.70;;
14030;SDS011;7090;49.436;8.490;2023-01-29T16:25:30;8.97;;;8.57;;
14030;SDS011;7090;49.436;8.490;2023-01-29T16:27:57;8.80;;;8.30;;
14030;SDS011;7090;49.436;8.490;2023-01-29T16:30:28;10.87;;;9.90;;
14030;SDS011;7090;49.436;8.490;2023-01-29T16:32:59;6.93;;;6.72;;
14030;SDS011;7090;49.436;8.490;2023-01-29T16:35:29;7.67;;;7.23;;
14030;SDS011;7090;49.436;8.490;2023-01-29T16:37:58;11.60;;;10.57;;
14030;SDS011;7090;49.436;8.490;2023-01-29T16:40:31;17.87;;;12.10;;
14030;SDS011;7090;49.436;8.490;2023-01-29T16:45:39;14.87;;;12.03;;
14030;SDS011;7090;49.436;8.490;2023-01-29T16:48:29;14.53;;;13.03;;
14030;SDS011;7090;49.436;8.490;2023-01-29T16:51:03;13.37;;;11.53;;
14030;SDS011;7090;49.436;8.490;2023-01-29T16:53:31;13.20;;;11.20;;
14030;SDS011;7090;49.436;8.490;2023-01-29T16:56:03;12.70;;;11.50;;
14030;SDS011;7090;49.436;8.490;2023-01-29T16:58:31;9.47;;;8.57;;
14030;SDS011;7090;49.436;8.490;2023-01-29T17:00:59;11.40;;;10.40;;
14030;SDS011;7090;49.436;8.490;2023-01-29T17:03:27;10.60;;;9.80;;
14030;SDS011;7090;49.436;8.490;2023-01-29T17:05:56;7.37;;;6.93;;
14030;SDS011;7090;49.436;8.490;2023-01-29T17:08:29;12.80;;;11.53;;
14030;SDS011;7090;49.436;8.490;2023-01-29T17:10:59;13.77;;;11.10;;
14030;SDS011;7090;49.436;8.490;2023-01-29T17:13:41;13.90;;;11.33;;
14030;SDS011;7090;49.436;8.490;2023-01-29T17:22:22;8.97;;;8.17;;
14030;SDS011;7090;49.436;8.490;2023-01-29T17:24:48;16.90;;;15.53;;
14030;SDS011;7090;49.436;8.490;2023-01-29T17:27:21;12.47;;;11.67;;
14030;SDS011;7090;49.436;8.490;2023-01-29T17:29:46;10.70;;;9.80;;
14030;SDS011;7090;49.436;8.490;2023-01-29T17:32:13;11.30;;;10.60;;
14030;SDS011;7090;49.436;8.490;2023-01-29T17:34:44;9.43;;;8.93;;
14030;SDS011;7090;49.436;8.490;2023-01-29T17:37:13;10.05;;;9.27;;
14030;SDS011;7090;49.436;8.490;2023-01-29T17:39:40;7.27;;;6.97;;
14030;SDS011;7090;49.436;8.490;2023-01-29T17:42:07;10.63;;;9.87;;
14030;SDS011;7090;49.436;8.490;2023-01-29T17:44:36;5.90;;;5.70;;
14030;SDS011;7090;49.436;8.490;2023-01-29T17:47:02;12.83;;;11.83;;
14030;SDS011;7090;49.436;8.490;2023-01-29T17:49:29;9.90;;;9.40;;
14030;SDS011;7090;49.436;8.490;2023-01-29T17:51:59;7.67;;;7.30;;
14030;SDS011;7090;49.436;8.490;2023-01-29T17:54:25;6.03;;;5.83;;
14030;SDS011;7090;49.436;8.490;2023-01-29T17:56:53;6.67;;;6.47;;
14030;SDS011;7090;49.436;8.490;2023-01-29T17:59:20;9.30;;;8.88;;
14030;SDS011;7090;49.436;8.490;2023-01-29T18:01:47;8.60;;;8.20;;
14030;SDS011;7090;49.436;8.490;2023-01-29T18:04:13;7.50;;;7.10;;
14030;SDS011;7090;49.436;8.490;2023-01-29T18:06:41;6.60;;;6.40;;